sensor_id;sensor_type;location;lat;lon;timestamp;P1;durP1;ratioP1;P2;durP2;ratioP2
46983;SDS011;34732;52.112;9.366;2023-06-10T09:03:52;19.65;;;7.45;;
46983;SDS011;34732;52.112;9.366;2023-06-10T09:07:19;25.13;;;6.65;;
46983;SDS011;34732;52.112;9.366;2023-06-10T09:10:45;19.45;;;7.28;;
46983;SDS011;34732;52.112;9.366;2023-06-10T09:14:09;27.60;;;6.97;;
46983;SDS011;34732;52.112;9.366;2023-06-10T09:17:34;19.90;;;6.68;;
46983;SDS011;34732;52.112;9.366;2023-06-10T09:21:03;20.80;;;6.63;;
46983;SDS011;34732;52.112;9.366;2023-06-10T09:24:29;19.85;;;5.85;;
46983;SDS011;34732;52.112;9.366;2023-06-10T09:27:53;23.92;;;6.30;;
46983;SDS011;34732;52.112;9.366;2023-06-10T09:31:15;15.85;;;6.47;;
46983;SDS011;34732;52.112;9.366;2023-06-10T09:34:38;16.63;;;5.60;;
46983;SDS011;34732;52.112;9.366;2023-06-10T09:38:02;28.52;;;6.82;;
46983;SDS011;34732;52.112;9.366;2023-06-10T09:41:39;15.32;;;5.93;;
46983;SDS011;34732;52.112;9.366;2023-06-10T09:45:03;12.57;;;6.18;;
46983;SDS011;34732;52.112;9.366;2023-06-10T09:48:25;12.38;;;5.30;;
46983;SDS011;34732;52.112;9.366;2023-06-10T09:51:53;12.30;;;5.43;;
46983;SDS011;34732;52.112;9.366;2023-06-10T09:55:17;13.30;;;5.55;;
46983;SDS011;34732;52.112;9.366;2023-06-10T09:58:41;13.27;;;5.07;;
46983;SDS011;34732;52.112;9.366;2023-06-10T10:02:06;12.88;;;5.35;;
46983;SDS011;34732;52.112;9.366;2023-06-10T10:05:30;9.27;;;5.03;;
46983;SDS011;34732;52.112;9.366;2023-06-10T10:08:55;15.40;;;5.30;;
46983;SDS011;34732;52.112;9.366;2023-06-10T10:12:21;13.90;;;4.78;;
46983;SDS011;34732;52.112;9.366;2023-06-10T10:15:46;13.88;;;4.68;;
46983;SDS011;34732;52.112;9.366;2023-06-10T10:19:20;11.68;;;5.22;;
46983;SDS011;34732;52.112;9.366;2023-06-10T10:22:53;11.68;;;4.80;;
46983;SDS011;34732;52.112;9.366;2023-06-10T10:26:17;10.20;;;4.45;;
46983;SDS011;34732;52.112;9.366;2023-06-10T10:29:41;10.48;;;4.50;;
46983;SDS011;34732;52.112;9.366;2023-06-10T10:33:12;8.73;;;4.78;;
46983;SDS011;34732;52.112;9.366;2023-06-10T10:36:41;10.40;;;5.10;;
46983;SDS011;34732;52.112;9.366;2023-06-10T10:40:03;14.55;;;5.20;;
46983;SDS011;34732;52.112;9.366;2023-06-10T10:43:27;10.07;;;4.13;;
46983;SDS011;34732;52.112;9.366;2023-06-10T10:46:51;11.05;;;5.15;;
46983;SDS011;34732;52.112;9.366;2023-06-10T10:50:15;7.95;;;4.45;;
46983;SDS011;34732;52.112;9.366;2023-06-10T10:53:42;9.77;;;4.07;;
46983;SDS011;34732;52.112;9.366;2023-06-10T11:03:57;7.88;;;4.32;;
46983;SDS011;34732;52.112;9.366;2023-06-10T11:10:54;8.70;;;4.55;;
46983;SDS011;34732;52.112;9.366;2023-06-10T11:14:25;19.50;;;5.27;;
46983;SDS011;34732;52.112;9.366;2023-06-10T11:25:28;8.63;;;4.25;;
46983;SDS011;34732;52.112;9.366;2023-06-10T11:32:24;5.35;;;3.70;;
46983;SDS011;34732;52.112;9.366;2023-06-10T11:35:56;6.13;;;4.20;;
46983;SDS011;34732;52.112;9.366;2023-06-10T11:39:20;11.02;;;4.70;;
46983;SDS011;34732;52.112;9.366;2023-06-10T11:42:48;6.47;;;3.83;;
46983;SDS011;34732;52.112;9.366;2023-06-10T11:46:14;6.88;;;4.30;;
46983;SDS011;34732;52.112;9.366;2023-06-10T11:49:37;6.68;;;3.85;;
46983;SDS011;34732;52.112;9.366;2023-06-10T11:56:22;6.75;;;4.28;;
46983;SDS011;34732;52.112;9.366;2023-06-10T11:59:51;7.93;;;3.88;;
46983;SDS011;34732;52.112;9.366;2023-06-10T12:03:17;5.88;;;4.07;;
46983;SDS011;34732;52.112;9.366;2023-06-10T12:10:03;6.57;;;3.75;;
46983;SDS011;34732;52.112;9.366;2023-06-10T12:13:30;5.15;;;3.53;;
46983;SDS011;34732;52.112;9.366;2023-06-10T12:16:56;6.25;;;3.90;;
46983;SDS011;34732;52.112;9.366;2023-06-10T12:20:29;5.13;;;3.67;;
46983;SDS011;34732;52.112;9.366;2023-06-10T12:27:33;6.82;;;3.70;;
46983;SDS011;34732;52.112;9.366;2023-06-10T12:31:06;5.30;;;3.70;;
46983;SDS011;34732;52.112;9.366;2023-06-10T12:34:32;7.20;;;3.95;;
46983;SDS011;34732;52.112;9.366;2023-06-10T12:41:28;5.10;;;3.70;;
46983;SDS011;34732;52.112;9.366;2023-06-10T12:44:53;6.47;;;3.75;;
46983;SDS011;34732;52.112;9.366;2023-06-10T12:48:23;6.20;;;3.72;;
46983;SDS011;34732;52.112;9.366;2023-06-10T12:51:47;7.68;;;4.30;;
46983;SDS011;34732;52.112;9.366;2023-06-10T12:55:09;9.10;;;4.88;;
46983;SDS011;34732;52.112;9.366;2023-06-10T12:58:32;9.38;;;5.43;;
46983;SDS011;34732;52.112;9.366;2023-06-10T13:01:56;8.13;;;4.93;;
46983;SDS011;34732;52.112;9.366;2023-06-10T13:05:19;11.07;;;5.13;;
46983;SDS011;34732;52.112;9.366;2023-06-10T13:08:41;9.73;;;5.03;;
46983;SDS011;34732;52.112;9.366;2023-06-10T13:15:28;7.32;;;5.80;;
46983;SDS011;34732;52.112;9.366;2023-06-10T13:18:49;10.57;;;5.40;;
46983;SDS011;34732;52.112;9.366;2023-06-10T13:22:12;9.38;;;4.60;;
46983;SDS011;34732;52.112;9.366;2023-06-10T13:25:36;5.75;;;4.95;;
46983;SDS011;34732;52.112;9.366;2023-06-10T13:29:03;6.30;;;4.35;;
46983;SDS011;34732;52.112;9.366;2023-06-10T13:35:45;8.00;;;5.00;;
46983;SDS011;34732;52.112;9.366;2023-06-10T13:39:06;8.90;;;6.40;;
46983;SDS011;34732;52.112;9.366;2023-06-10T13:42:30;7.30;;;6.07;;
46983;SDS011;34732;52.112;9.366;2023-06-10T13:49:12;10.90;;;7.32;;
46983;SDS011;34732;52.112;9.366;2023-06-10T13:55:57;10.43;;;6.57;;
46983;SDS011;34732;52.112;9.366;2023-06-10T13:59:23;7.57;;;6.45;;
46983;SDS011;34732;52.112;9.366;2023-06-10T14:06:10;7.28;;;6.57;;
46983;SDS011;34732;52.112;9.366;2023-06-10T14:09:40;7.18;;;6.47;;
46983;SDS011;34732;52.112;9.366;2023-06-10T14:13:04;8.38;;;6.82;;
46983;SDS011;34732;52.112;9.366;2023-06-10T14:16:30;8.40;;;6.70;;
46983;SDS011;34732;52.112;9.366;2023-06-10T14:20:01;9.73;;;6.78;;
46983;SDS011;34732;52.112;9.366;2023-06-10T14:23:22;8.10;;;7.30;;
46983;SDS011;34732;52.112;9.366;2023-06-10T14:26:45;7.97;;;6.45;;
46983;SDS011;34732;52.112;9.366;2023-06-10T14:33:34;7.20;;;6.50;;
46983;SDS011;34732;52.112;9.366;2023-06-10T14:36:58;7.68;;;6.60;;
46983;SDS011;34732;52.112;9.366;2023-06-10T14:40:22;7.50;;;6.80;;
46983;SDS011;34732;52.112;9.366;2023-06-10T14:43:53;8.82;;;7.88;;
46983;SDS011;34732;52.112;9.366;2023-06-10T14:47:19;10.73;;;8.30;;
46983;SDS011;34732;52.112;9.366;2023-06-10T14:50:42;8.38;;;7.60;;
46983;SDS011;34732;52.112;9.366;2023-06-10T14:54:09;9.02;;;7.78;;
46983;SDS011;34732;52.112;9.366;2023-06-10T14:57:33;7.80;;;7.03;;
46983;SDS011;34732;52.112;9.366;2023-06-10T15:01:02;8.43;;;7.55;;
46983;SDS011;34732;52.112;9.366;2023-06-10T15:04:24;8.52;;;7.22;;
46983;SDS011;34732;52.112;9.366;2023-06-10T15:11:06;8.95;;;7.45;;
46983;SDS011;34732;52.112;9.366;2023-06-10T15:14:29;8.25;;;7.15;;
46983;SDS011;34732;52.112;9.366;2023-06-10T15:17:53;7.55;;;6.70;;
46983;SDS011;34732;52.112;9.366;2023-06-10T15:21:14;8.27;;;7.47;;
46983;SDS011;34732;52.112;9.366;2023-06-10T15:24:40;8.38;;;7.22;;
46983;SDS011;34732;52.112;9.366;2023-06-10T15:28:06;7.28;;;6.60;;
46983;SDS011;34732;52.112;9.366;2023-06-10T15:31:31;8.07;;;7.22;;
46983;SDS011;34732;52.112;9.366;2023-06-10T15:34:58;8.05;;;6.70;;
46983;SDS011;34732;52.112;9.366;2023-06-10T15:42:38;7.22;;;6.45;;
46983;SDS011;34732;52.112;9.366;2023-06-10T15:46:02;7.32;;;6.63;;
46983;SDS011;34732;52.112;9.366;2023-06-10T15:49:25;6.53;;;6.03;;
46983;SDS011;34732;52.112;9.366;2023-06-10T15:52:49;7.95;;;7.15;;
46983;SDS011;34732;52.112;9.366;2023-06-10T15:56:17;7.25;;;6.57;;
46983;SDS011;34732;52.112;9.366;2023-06-10T15:59:41;7.47;;;6.70;;
46983;SDS011;34732;52.112;9.366;2023-06-10T16:03:05;7.18;;;6.47;;
46983;SDS011;34732;52.112;9.366;2023-06-10T16:06:31;6.80;;;6.10;;
46983;SDS011;34732;52.112;9.366;2023-06-10T16:09:55;8.75;;;6.50;;
46983;SDS011;34732;52.112;9.366;2023-06-10T16:13:20;6.85;;;6.07;;
46983;SDS011;34732;52.112;9.366;2023-06-10T16:16:47;6.90;;;6.30;;
46983;SDS011;34732;52.112;9.366;2023-06-10T16:20:14;6.85;;;6.15;;
46983;SDS011;34732;52.112;9.366;2023-06-10T16:23:38;7.38;;;6.30;;
46983;SDS011;34732;52.112;9.366;2023-06-10T16:26:59;7.00;;;6.30;;
46983;SDS011;34732;52.112;9.366;2023-06-10T16:30:23;6.35;;;5.75;;
46983;SDS011;34732;52.112;9.366;2023-06-10T16:33:47;7.57;;;5.93;;
46983;SDS011;34732;52.112;9.366;2023-06-10T16:40:31;7.20;;;6.50;;
46983;SDS011;34732;52.112;9.366;2023-06-10T16:44:02;6.75;;;6.07;;
46983;SDS011;34732;52.112;9.366;2023-06-10T16:47:28;7.78;;;5.88;;
46983;SDS011;34732;52.112;9.366;2023-06-10T16:50:51;6.70;;;6.00;;
46983;SDS011;34732;52.112;9.366;2023-06-10T16:54:17;6.68;;;6.07;;
46983;SDS011;34732;52.112;9.366;2023-06-10T16:57:41;6.53;;;5.93;;
46983;SDS011;34732;52.112;9.366;2023-06-10T17:04:30;6.40;;;5.80;;
46983;SDS011;34732;52.112;9.366;2023-06-10T17:07:56;7.28;;;5.90;;
46983;SDS011;34732;52.112;9.366;2023-06-10T17:11:22;6.22;;;5.65;;
46983;SDS011;34732;52.112;9.366;2023-06-10T17:14:48;6.88;;;5.85;;
46983;SDS011;34732;52.112;9.366;2023-06-10T17:18:10;6.72;;;6.20;;
46983;SDS011;34732;52.112;9.366;2023-06-10T17:21:33;7.93;;;6.85;;
46983;SDS011;34732;52.112;9.366;2023-06-10T17:24:59;7.13;;;6.53;;
46983;SDS011;34732;52.112;9.366;2023-06-10T17:28:27;6.82;;;5.97;;
46983;SDS011;34732;52.112;9.366;2023-06-10T17:31:55;8.98;;;6.53;;
46983;SDS011;34732;52.112;9.366;2023-06-10T17:35:21;7.10;;;6.30;;
46983;SDS011;34732;52.112;9.366;2023-06-10T17:38:44;6.63;;;6.03;;
46983;SDS011;34732;52.112;9.366;2023-06-10T17:42:08;7.40;;;6.03;;
46983;SDS011;34732;52.112;9.366;2023-06-10T17:45:34;6.38;;;5.70;;
46983;SDS011;34732;52.112;9.366;2023-06-10T17:49:00;7.45;;;6.20;;
46983;SDS011;34732;52.112;9.366;2023-06-10T17:52:26;7.63;;;6.28;;
46983;SDS011;34732;52.112;9.366;2023-06-10T17:55:50;6.75;;;6.13;;
46983;SDS011;34732;52.112;9.366;2023-06-10T17:59:13;6.63;;;5.95;;
46983;SDS011;34732;52.112;9.366;2023-06-10T18:02:41;7.85;;;6.63;;
46983;SDS011;34732;52.112;9.366;2023-06-10T18:06:09;11.80;;;6.75;;
46983;SDS011;34732;52.112;9.366;2023-06-10T18:09:33;10.82;;;7.07;;
46983;SDS011;34732;52.112;9.366;2023-06-10T18:16:15;9.57;;;7.38;;
46983;SDS011;34732;52.112;9.366;2023-06-10T18:19:39;9.02;;;7.55;;
46983;SDS011;34732;52.112;9.366;2023-06-10T18:23:02;10.95;;;7.80;;
46983;SDS011;34732;52.112;9.366;2023-06-10T18:26:28;12.77;;;8.10;;
46983;SDS011;34732;52.112;9.366;2023-06-10T18:29:52;10.48;;;7.80;;
46983;SDS011;34732;52.112;9.366;2023-06-10T18:33:18;8.85;;;7.10;;
46983;SDS011;34732;52.112;9.366;2023-06-10T18:36:46;10.18;;;7.63;;
46983;SDS011;34732;52.112;9.366;2023-06-10T18:40:09;12.68;;;7.88;;
46983;SDS011;34732;52.112;9.366;2023-06-10T18:43:35;10.68;;;7.35;;
46983;SDS011;34732;52.112;9.366;2023-06-10T18:47:02;11.20;;;7.78;;
46983;SDS011;34732;52.112;9.366;2023-06-10T18:50:25;10.30;;;7.65;;
46983;SDS011;34732;52.112;9.366;2023-06-10T18:53:51;10.77;;;8.25;;
46983;SDS011;34732;52.112;9.366;2023-06-10T18:57:17;12.23;;;7.97;;
46983;SDS011;34732;52.112;9.366;2023-06-10T19:00:38;12.52;;;7.93;;
46983;SDS011;34732;52.112;9.366;2023-06-10T19:04:00;11.88;;;8.60;;
46983;SDS011;34732;52.112;9.366;2023-06-10T19:07:24;8.77;;;7.78;;
46983;SDS011;34732;52.112;9.366;2023-06-10T19:10:52;9.75;;;8.00;;
46983;SDS011;34732;52.112;9.366;2023-06-10T19:14:15;8.20;;;7.40;;
46983;SDS011;34732;52.112;9.366;2023-06-10T19:17:44;10.27;;;7.82;;
46983;SDS011;34732;52.112;9.366;2023-06-10T19:21:05;10.60;;;7.68;;
46983;SDS011;34732;52.112;9.366;2023-06-10T19:24:43;10.88;;;8.30;;
46983;SDS011;34732;52.112;9.366;2023-06-10T19:28:07;9.90;;;8.30;;
46983;SDS011;34732;52.112;9.366;2023-06-10T19:31:31;9.45;;;8.45;;
46983;SDS011;34732;52.112;9.366;2023-06-10T19:34:57;11.15;;;7.82;;
46983;SDS011;34732;52.112;9.366;2023-06-10T19:38:21;11.80;;;8.70;;
46983;SDS011;34732;52.112;9.366;2023-06-10T19:41:49;8.05;;;7.03;;
46983;SDS011;34732;52.112;9.366;2023-06-10T19:45:12;9.57;;;6.97;;
46983;SDS011;34732;52.112;9.366;2023-06-10T19:48:36;6.75;;;6.07;;
46983;SDS011;34732;52.112;9.366;2023-06-10T19:52:04;7.03;;;6.28;;
